sensor_id;sensor_type;location;lat;lon;timestamp;temperature;humidity
22974;DHT22;11653;50.848;4.584;2023-05-10T00:02:07;14.50;99.90
22974;DHT22;11653;50.848;4.584;2023-05-10T00:04:32;14.40;99.90
22974;DHT22;11653;50.848;4.584;2023-05-10T00:06:58;14.40;99.90
22974;DHT22;11653;50.848;4.584;2023-05-10T00:09:24;14.40;99.90
22974;DHT22;11653;50.848;4.584;2023-05-10T00:11:50;14.30;99.90
22974;DHT22;11653;50.848;4.584;2023-05-10T00:14:15;14.30;99.90
22974;DHT22;11653;50.848;4.584;2023-05-10T00:16:41;14.30;99.90
22974;DHT22;11653;50.848;4.584;2023-05-10T00:19:07;14.30;99.90
22974;DHT22;11653;50.848;4.584;2023-05-10T00:21:33;14.30;99.90
22974;DHT22;11653;50.848;4.584;2023-05-10T00:23:59;14.40;99.90
22974;DHT22;11653;50.848;4.584;2023-05-10T00:26:25;14.40;99.90
22974;DHT22;11653;50.848;4.584;2023-05-10T00:28:50;14.30;99.90
22974;DHT22;11653;50.848;4.584;2023-05-10T00:31:16;14.30;99.90
22974;DHT22;11653;50.848;4.584;2023-05-10T00:33:42;14.30;99.90
22974;DHT22;11653;50.848;4.584;2023-05-10T00:36:08;14.30;99.90
22974;DHT22;11653;50.848;4.584;2023-05-10T00:38:34;14.40;99.90
22974;DHT22;11653;50.848;4.584;2023-05-10T00:40:59;14.40;99.90
22974;DHT22;11653;50.848;4.584;2023-05-10T00:43:25;14.30;99.90
22974;DHT22;11653;50.848;4.584;2023-05-10T00:45:51;14.40;99.90
22974;DHT22;11653;50.848;4.584;2023-05-10T00:48:17;14.40;99.90
22974;DHT22;11653;50.848;4.584;2023-05-10T00:50:43;14.50;99.90
22974;DHT22;11653;50.848;4.584;2023-05-10T00:53:10;14.50;99.90
22974;DHT22;11653;50.848;4.584;2023-05-10T00:55:36;14.60;99.90
22974;DHT22;11653;50.848;4.584;2023-05-10T00:58:02;14.60;99.90
22974;DHT22;11653;50.848;4.584;2023-05-10T01:00:27;14.60;99.90
22974;DHT22;11653;50.848;4.584;2023-05-10T01:02:53;14.70;99.90
22974;DHT22;11653;50.848;4.584;2023-05-10T01:05:19;14.60;99.90
22974;DHT22;11653;50.848;4.584;2023-05-10T01:07:45;14.60;99.90
22974;DHT22;11653;50.848;4.584;2023-05-10T01:10:11;14.70;99.90
22974;DHT22;11653;50.848;4.584;2023-05-10T01:12:39;14.70;99.90
22974;DHT22;11653;50.848;4.584;2023-05-10T01:15:07;14.80;99.90
22974;DHT22;11653;50.848;4.584;2023-05-10T01:17:35;14.60;99.90
22974;DHT22;11653;50.848;4.584;2023-05-10T01:20:01;14.60;99.90
22974;DHT22;11653;50.848;4.584;2023-05-10T01:25:44;14.60;99.90
22974;DHT22;11653;50.848;4.584;2023-05-10T01:29:07;14.60;99.90
22974;DHT22;11653;50.848;4.584;2023-05-10T01:31:30;14.60;99.90
22974;DHT22;11653;50.848;4.584;2023-05-10T01:34:23;14.60;99.90
22974;DHT22;11653;50.848;4.584;2023-05-10T01:37:09;14.60;99.90
22974;DHT22;11653;50.848;4.584;2023-05-10T01:40:13;14.60;99.90
22974;DHT22;11653;50.848;4.584;2023-05-10T01:42:51;14.70;99.90
22974;DHT22;11653;50.848;4.584;2023-05-10T01:45:39;14.70;99.90
22974;DHT22;11653;50.848;4.584;2023-05-10T01:48:09;14.70;99.90
22974;DHT22;11653;50.848;4.584;2023-05-10T01:50:37;14.70;99.90
22974;DHT22;11653;50.848;4.584;2023-05-10T01:53:06;14.70;99.90
22974;DHT22;11653;50.848;4.584;2023-05-10T01:55:35;14.70;99.90
22974;DHT22;11653;50.848;4.584;2023-05-10T01:58:10;14.80;99.90
22974;DHT22;11653;50.848;4.584;2023-05-10T02:00:42;14.80;99.90
22974;DHT22;11653;50.848;4.584;2023-05-10T02:03:10;14.80;99.90
22974;DHT22;11653;50.848;4.584;2023-05-10T02:05:37;14.70;99.90
22974;DHT22;11653;50.848;4.584;2023-05-10T02:08:06;14.60;99.90
22974;DHT22;11653;50.848;4.584;2023-05-10T02:10:34;14.60;99.90
22974;DHT22;11653;50.848;4.584;2023-05-10T02:13:02;14.60;99.90
22974;DHT22;11653;50.848;4.584;2023-05-10T02:15:28;14.50;99.90
22974;DHT22;11653;50.848;4.584;2023-05-10T02:17:55;14.40;99.90
22974;DHT22;11653;50.848;4.584;2023-05-10T02:20:23;14.40;99.90
22974;DHT22;11653;50.848;4.584;2023-05-10T02:22:52;14.50;99.90
22974;DHT22;11653;50.848;4.584;2023-05-10T02:25:20;14.40;99.90
22974;DHT22;11653;50.848;4.584;2023-05-10T02:27:47;14.40;99.90
22974;DHT22;11653;50.848;4.584;2023-05-10T02:30:14;14.50;99.90
22974;DHT22;11653;50.848;4.584;2023-05-10T02:32:41;14.50;99.90
22974;DHT22;11653;50.848;4.584;2023-05-10T02:35:08;14.50;99.90
22974;DHT22;11653;50.848;4.584;2023-05-10T02:37:34;14.30;99.90
22974;DHT22;11653;50.848;4.584;2023-05-10T02:40:01;14.30;99.90
22974;DHT22;11653;50.848;4.584;2023-05-10T02:42:29;14.30;99.90
22974;DHT22;11653;50.848;4.584;2023-05-10T02:45:01;14.40;99.90
22974;DHT22;11653;50.848;4.584;2023-05-10T02:47:28;14.30;99.90
22974;DHT22;11653;50.848;4.584;2023-05-10T02:49:54;14.20;99.90
22974;DHT22;11653;50.848;4.584;2023-05-10T02:52:24;14.30;99.90
22974;DHT22;11653;50.848;4.584;2023-05-10T02:54:55;14.30;99.90
22974;DHT22;11653;50.848;4.584;2023-05-10T02:57:33;14.20;99.90
22974;DHT22;11653;50.848;4.584;2023-05-10T02:59:59;14.20;99.90
22974;DHT22;11653;50.848;4.584;2023-05-10T03:02:26;14.20;99.90
22974;DHT22;11653;50.848;4.584;2023-05-10T03:04:52;14.30;99.90
22974;DHT22;11653;50.848;4.584;2023-05-10T03:07:18;14.20;99.90
22974;DHT22;11653;50.848;4.584;2023-05-10T03:09:47;14.20;99.90
22974;DHT22;11653;50.848;4.584;2023-05-10T03:15:17;14.20;99.90
22974;DHT22;11653;50.848;4.584;2023-05-10T03:20:43;14.20;99.90
22974;DHT22;11653;50.848;4.584;2023-05-10T03:25:39;14.30;99.90
22974;DHT22;11653;50.848;4.584;2023-05-10T03:28:06;14.20;99.90
22974;DHT22;11653;50.848;4.584;2023-05-10T03:30:32;14.10;99.90
22974;DHT22;11653;50.848;4.584;2023-05-10T03:32:58;14.10;99.90
22974;DHT22;11653;50.848;4.584;2023-05-10T03:35:29;14.20;99.90
22974;DHT22;11653;50.848;4.584;2023-05-10T03:37:55;14.20;99.90
22974;DHT22;11653;50.848;4.584;2023-05-10T03:40:20;14.20;99.90
22974;DHT22;11653;50.848;4.584;2023-05-10T03:42:46;14.20;99.90
22974;DHT22;11653;50.848;4.584;2023-05-10T03:45:11;14.20;99.90
22974;DHT22;11653;50.848;4.584;2023-05-10T03:47:37;14.20;99.90
22974;DHT22;11653;50.848;4.584;2023-05-10T03:50:03;14.30;99.90
22974;DHT22;11653;50.848;4.584;2023-05-10T03:52:28;14.30;99.90
22974;DHT22;11653;50.848;4.584;2023-05-10T03:54:54;14.30;99.90
22974;DHT22;11653;50.848;4.584;2023-05-10T03:57:20;14.30;99.90
22974;DHT22;11653;50.848;4.584;2023-05-10T03:59:45;14.30;99.90
22974;DHT22;11653;50.848;4.584;2023-05-10T04:02:11;14.30;99.90
22974;DHT22;11653;50.848;4.584;2023-05-10T04:04:36;14.40;99.90
22974;DHT22;11653;50.848;4.584;2023-05-10T04:07:03;14.40;99.90
22974;DHT22;11653;50.848;4.584;2023-05-10T04:09:28;14.40;99.90
22974;DHT22;11653;50.848;4.584;2023-05-10T04:11:54;14.40;99.90
22974;DHT22;11653;50.848;4.584;2023-05-10T04:14:20;14.30;99.90
22974;DHT22;11653;50.848;4.584;2023-05-10T04:16:45;14.20;99.90
22974;DHT22;11653;50.848;4.584;2023-05-10T04:19:11;14.20;99.90
22974;DHT22;11653;50.848;4.584;2023-05-10T04:21:37;14.20;99.90
22974;DHT22;11653;50.848;4.584;2023-05-10T04:24:02;14.10;99.90
22974;DHT22;11653;50.848;4.584;2023-05-10T04:26:28;14.00;99.90
22974;DHT22;11653;50.848;4.584;2023-05-10T04:28:54;14.00;99.90
22974;DHT22;11653;50.848;4.584;2023-05-10T04:31:19;14.00;99.90
22974;DHT22;11653;50.848;4.584;2023-05-10T04:33:45;14.00;99.90
22974;DHT22;11653;50.848;4.584;2023-05-10T04:36:11;14.10;99.90
22974;DHT22;11653;50.848;4.584;2023-05-10T04:38:36;14.00;99.90
22974;DHT22;11653;50.848;4.584;2023-05-10T04:41:08;14.10;99.90
22974;DHT22;11653;50.848;4.584;2023-05-10T04:43:35;14.20;99.90
22974;DHT22;11653;50.848;4.584;2023-05-10T04:46:00;14.20;99.90
22974;DHT22;11653;50.848;4.584;2023-05-10T04:48:26;14.20;99.90
22974;DHT22;11653;50.848;4.584;2023-05-10T04:50:52;14.20;99.90
22974;DHT22;11653;50.848;4.584;2023-05-10T04:53:17;14.20;99.90
22974;DHT22;11653;50.848;4.584;2023-05-10T04:55:43;14.10;99.90
22974;DHT22;11653;50.848;4.584;2023-05-10T04:58:09;14.20;99.90
22974;DHT22;11653;50.848;4.584;2023-05-10T05:00:34;14.30;99.90
22974;DHT22;11653;50.848;4.584;2023-05-10T05:03:00;14.30;99.90
22974;DHT22;11653;50.848;4.584;2023-05-10T05:05:26;14.30;99.90
22974;DHT22;11653;50.848;4.584;2023-05-10T05:07:52;14.20;99.90
22974;DHT22;11653;50.848;4.584;2023-05-10T05:10:17;14.20;99.90
22974;DHT22;11653;50.848;4.584;2023-05-10T05:12:43;14.30;99.90
22974;DHT22;11653;50.848;4.584;2023-05-10T05:15:09;14.40;99.90
22974;DHT22;11653;50.848;4.584;2023-05-10T05:17:35;14.50;99.90
22974;DHT22;11653;50.848;4.584;2023-05-10T05:20:01;14.50;99.90
22974;DHT22;11653;50.848;4.584;2023-05-10T05:22:27;14.50;99.90
22974;DHT22;11653;50.848;4.584;2023-05-10T05:24:54;14.50;99.90
22974;DHT22;11653;50.848;4.584;2023-05-10T05:27:20;14.60;99.90
22974;DHT22;11653;50.848;4.584;2023-05-10T05:29:56;14.60;99.90
22974;DHT22;11653;50.848;4.584;2023-05-10T05:32:22;14.60;99.90
22974;DHT22;11653;50.848;4.584;2023-05-10T05:34:48;14.70;99.90
22974;DHT22;11653;50.848;4.584;2023-05-10T05:37:15;14.80;99.90
22974;DHT22;11653;50.848;4.584;2023-05-10T05:39:41;14.70;99.90
22974;DHT22;11653;50.848;4.584;2023-05-10T05:42:08;14.80;99.90
22974;DHT22;11653;50.848;4.584;2023-05-10T05:44:34;14.80;99.90
22974;DHT22;11653;50.848;4.584;2023-05-10T05:47:00;14.90;99.90
22974;DHT22;11653;50.848;4.584;2023-05-10T05:49:26;14.90;99.90
22974;DHT22;11653;50.848;4.584;2023-05-10T05:51:52;14.90;99.90
22974;DHT22;11653;50.848;4.584;2023-05-10T05:54:17;14.80;99.90
22974;DHT22;11653;50.848;4.584;2023-05-10T05:56:43;14.80;99.90
22974;DHT22;11653;50.848;4.584;2023-05-10T05:59:10;14.80;99.90
22974;DHT22;11653;50.848;4.584;2023-05-10T06:01:36;15.00;99.90
22974;DHT22;11653;50.848;4.584;2023-05-10T06:04:01;15.10;99.90
22974;DHT22;11653;50.848;4.584;2023-05-10T06:06:27;15.10;99.90
22974;DHT22;11653;50.848;4.584;2023-05-10T06:08:55;15.00;99.90
22974;DHT22;11653;50.848;4.584;2023-05-10T06:11:20;15.10;99.90
22974;DHT22;11653;50.848;4.584;2023-05-10T06:13:49;15.10;99.90
22974;DHT22;11653;50.848;4.584;2023-05-10T06:16:14;15.10;99.90
22974;DHT22;11653;50.848;4.584;2023-05-10T06:18:40;15.20;99.90
22974;DHT22;11653;50.848;4.584;2023-05-10T06:21:06;15.20;99.90
22974;DHT22;11653;50.848;4.584;2023-05-10T06:23:35;15.10;99.90
22974;DHT22;11653;50.848;4.584;2023-05-10T06:26:01;15.10;99.90
22974;DHT22;11653;50.848;4.584;2023-05-10T06:28:26;15.10;99.90
22974;DHT22;11653;50.848;4.584;2023-05-10T06:30:52;15.00;99.90
22974;DHT22;11653;50.848;4.584;2023-05-10T06:33:18;14.90;99.90
22974;DHT22;11653;50.848;4.584;2023-05-10T06:35:44;14.80;99.90
22974;DHT22;11653;50.848;4.584;2023-05-10T06:38:09;14.80;99.90
22974;DHT22;11653;50.848;4.584;2023-05-10T06:40:35;14.80;99.90
22974;DHT22;11653;50.848;4.584;2023-05-10T06:43:01;14.70;99.90
22974;DHT22;11653;50.848;4.584;2023-05-10T06:45:27;14.70;99.90
22974;DHT22;11653;50.848;4.584;2023-05-10T06:47:52;14.70;99.90
22974;DHT22;11653;50.848;4.584;2023-05-10T06:50:18;14.60;99.90
22974;DHT22;11653;50.848;4.584;2023-05-10T06:52:44;14.50;99.90
22974;DHT22;11653;50.848;4.584;2023-05-10T06:55:09;14.30;99.90
22974;DHT22;11653;50.848;4.584;2023-05-10T06:57:35;14.30;99.90
22974;DHT22;11653;50.848;4.584;2023-05-10T07:00:02;14.20;99.90
22974;DHT22;11653;50.848;4.584;2023-05-10T07:02:29;14.20;99.90
22974;DHT22;11653;50.848;4.584;2023-05-10T07:04:55;14.00;99.90
22974;DHT22;11653;50.848;4.584;2023-05-10T07:07:20;14.00;99.90
22974;DHT22;11653;50.848;4.584;2023-05-10T07:09:46;14.00;99.90
22974;DHT22;11653;50.848;4.584;2023-05-10T07:12:12;14.10;99.90
22974;DHT22;11653;50.848;4.584;2023-05-10T07:14:38;14.00;99.90
22974;DHT22;11653;50.848;4.584;2023-05-10T07:17:03;14.10;99.90
22974;DHT22;11653;50.848;4.584;2023-05-10T07:19:29;14.10;99.90
22974;DHT22;11653;50.848;4.584;2023-05-10T07:21:55;14.30;99.90
22974;DHT22;11653;50.848;4.584;2023-05-10T07:24:21;14.40;99.90
22974;DHT22;11653;50.848;4.584;2023-05-10T07:26:47;14.40;99.90
22974;DHT22;11653;50.848;4.584;2023-05-10T07:29:12;14.40;99.90
22974;DHT22;11653;50.848;4.584;2023-05-10T07:31:38;14.30;99.90
22974;DHT22;11653;50.848;4.584;2023-05-10T07:34:04;14.40;99.90
22974;DHT22;11653;50.848;4.584;2023-05-10T07:36:30;14.30;99.90
22974;DHT22;11653;50.848;4.584;2023-05-10T07:38:56;14.30;99.90
22974;DHT22;11653;50.848;4.584;2023-05-10T07:41:22;14.30;99.90
22974;DHT22;11653;50.848;4.584;2023-05-10T07:43:48;14.20;99.90
22974;DHT22;11653;50.848;4.584;2023-05-10T07:46:14;14.10;99.90
22974;DHT22;11653;50.848;4.584;2023-05-10T07:48:39;14.10;99.90
22974;DHT22;11653;50.848;4.584;2023-05-10T07:51:05;14.20;99.90
22974;DHT22;11653;50.848;4.584;2023-05-10T07:53:32;14.10;99.90
22974;DHT22;11653;50.848;4.584;2023-05-10T07:55:58;14.10;99.90
22974;DHT22;11653;50.848;4.584;2023-05-10T07:58:24;14.00;99.90
22974;DHT22;11653;50.848;4.584;2023-05-10T08:00:50;14.00;99.90
22974;DHT22;11653;50.848;4.584;2023-05-10T08:03:16;14.00;99.90
22974;DHT22;11653;50.848;4.584;2023-05-10T08:05:42;13.90;99.90
22974;DHT22;11653;50.848;4.584;2023-05-10T08:08:08;14.00;99.90
22974;DHT22;11653;50.848;4.584;2023-05-10T08:10:33;14.00;99.90
22974;DHT22;11653;50.848;4.584;2023-05-10T08:12:59;14.00;99.90
22974;DHT22;11653;50.848;4.584;2023-05-10T08:15:25;14.00;99.90
22974;DHT22;11653;50.848;4.584;2023-05-10T08:17:54;13.90;99.90
22974;DHT22;11653;50.848;4.584;2023-05-10T08:20:20;13.90;99.90
22974;DHT22;11653;50.848;4.584;2023-05-10T08:22:46;13.90;99.90
22974;DHT22;11653;50.848;4.584;2023-05-10T08:25:12;13.90;99.90
22974;DHT22;11653;50.848;4.584;2023-05-10T08:27:37;13.90;99.90
22974;DHT22;11653;50.848;4.584;2023-05-10T08:30:03;14.10;99.90
22974;DHT22;11653;50.848;4.584;2023-05-10T08:32:29;14.20;99.90
22974;DHT22;11653;50.848;4.584;2023-05-10T08:34:55;14.10;99.90
22974;DHT22;11653;50.848;4.584;2023-05-10T08:37:23;14.20;99.90
22974;DHT22;11653;50.848;4.584;2023-05-10T08:39:48;14.20;99.90
22974;DHT22;11653;50.848;4.584;2023-05-10T08:42:16;14.30;99.90
22974;DHT22;11653;50.848;4.584;2023-05-10T08:44:45;14.30;99.90
22974;DHT22;11653;50.848;4.584;2023-05-10T08:47:15;14.40;99.90
22974;DHT22;11653;50.848;4.584;2023-05-10T08:49:42;14.40;99.90
22974;DHT22;11653;50.848;4.584;2023-05-10T08:52:09;14.50;99.90
22974;DHT22;11653;50.848;4.584;2023-05-10T08:54:36;14.50;99.90
22974;DHT22;11653;50.848;4.584;2023-05-10T08:57:03;14.60;99.90
22974;DHT22;11653;50.848;4.584;2023-05-10T08:59:29;14.70;99.90
22974;DHT22;11653;50.848;4.584;2023-05-10T09:01:57;15.00;99.90
22974;DHT22;11653;50.848;4.584;2023-05-10T09:04:24;15.00;99.90
22974;DHT22;11653;50.848;4.584;2023-05-10T09:06:49;15.00;99.90
22974;DHT22;11653;50.848;4.584;2023-05-10T09:09:16;15.10;99.90
22974;DHT22;11653;50.848;4.584;2023-05-10T09:11:43;15.10;99.90
22974;DHT22;11653;50.848;4.584;2023-05-10T09:14:09;15.00;99.90
22974;DHT22;11653;50.848;4.584;2023-05-10T09:16:35;14.90;99.90
22974;DHT22;11653;50.848;4.584;2023-05-10T09:19:00;15.00;99.90
22974;DHT22;11653;50.848;4.584;2023-05-10T09:21:26;15.10;99.90
22974;DHT22;11653;50.848;4.584;2023-05-10T09:23:52;15.10;99.90
22974;DHT22;11653;50.848;4.584;2023-05-10T09:26:23;15.10;99.90
22974;DHT22;11653;50.848;4.584;2023-05-10T09:28:57;15.10;99.90
22974;DHT22;11653;50.848;4.584;2023-05-10T09:31:23;15.20;99.90
22974;DHT22;11653;50.848;4.584;2023-05-10T09:33:51;15.30;99.90
22974;DHT22;11653;50.848;4.584;2023-05-10T09:36:17;15.20;99.90
22974;DHT22;11653;50.848;4.584;2023-05-10T09:38:53;15.20;99.90
22974;DHT22;11653;50.848;4.584;2023-05-10T09:41:22;15.10;99.90
22974;DHT22;11653;50.848;4.584;2023-05-10T09:43:49;15.20;99.90
22974;DHT22;11653;50.848;4.584;2023-05-10T09:46:15;15.30;99.90
22974;DHT22;11653;50.848;4.584;2023-05-10T09:48:46;15.30;99.90
22974;DHT22;11653;50.848;4.584;2023-05-10T09:51:19;15.30;99.90
22974;DHT22;11653;50.848;4.584;2023-05-10T09:53:45;15.10;99.90
22974;DHT22;11653;50.848;4.584;2023-05-10T09:56:11;15.00;99.90
22974;DHT22;11653;50.848;4.584;2023-05-10T09:58:37;15.00;99.90
22974;DHT22;11653;50.848;4.584;2023-05-10T10:01:11;14.90;99.90
22974;DHT22;11653;50.848;4.584;2023-05-10T10:03:42;15.00;99.90
22974;DHT22;11653;50.848;4.584;2023-05-10T10:06:08;15.00;99.90
22974;DHT22;11653;50.848;4.584;2023-05-10T10:08:34;15.00;99.90
22974;DHT22;11653;50.848;4.584;2023-05-10T10:11:00;14.90;99.90
22974;DHT22;11653;50.848;4.584;2023-05-10T10:13:26;14.90;99.90
22974;DHT22;11653;50.848;4.584;2023-05-10T10:15:52;15.00;99.90
22974;DHT22;11653;50.848;4.584;2023-05-10T10:18:19;15.10;99.90
22974;DHT22;11653;50.848;4.584;2023-05-10T10:20:49;15.10;99.90
22974;DHT22;11653;50.848;4.584;2023-05-10T10:23:15;15.20;99.90
22974;DHT22;11653;50.848;4.584;2023-05-10T10:25:41;15.20;99.90
22974;DHT22;11653;50.848;4.584;2023-05-10T10:31:27;15.40;99.90
22974;DHT22;11653;50.848;4.584;2023-05-10T10:34:07;15.30;99.90
22974;DHT22;11653;50.848;4.584;2023-05-10T10:36:40;15.40;99.90
22974;DHT22;11653;50.848;4.584;2023-05-10T10:39:11;15.50;99.90
22974;DHT22;11653;50.848;4.584;2023-05-10T10:41:52;15.50;99.90
22974;DHT22;11653;50.848;4.584;2023-05-10T10:49:28;15.40;99.90
22974;DHT22;11653;50.848;4.584;2023-05-10T10:55:02;15.30;99.90
22974;DHT22;11653;50.848;4.584;2023-05-10T10:57:31;15.20;99.90
22974;DHT22;11653;50.848;4.584;2023-05-10T11:02:52;15.20;99.90
22974;DHT22;11653;50.848;4.584;2023-05-10T11:05:38;15.20;99.90
22974;DHT22;11653;50.848;4.584;2023-05-10T11:08:28;15.10;99.90
22974;DHT22;11653;50.848;4.584;2023-05-10T11:13:46;15.40;99.90
22974;DHT22;11653;50.848;4.584;2023-05-10T11:16:22;15.60;99.90
22974;DHT22;11653;50.848;4.584;2023-05-10T11:19:07;15.90;99.90
22974;DHT22;11653;50.848;4.584;2023-05-10T11:21:34;16.10;99.90
22974;DHT22;11653;50.848;4.584;2023-05-10T11:24:14;16.20;99.90
22974;DHT22;11653;50.848;4.584;2023-05-10T11:26:40;16.40;99.90
22974;DHT22;11653;50.848;4.584;2023-05-10T11:29:06;16.70;99.90
22974;DHT22;11653;50.848;4.584;2023-05-10T11:31:32;16.80;99.90
22974;DHT22;11653;50.848;4.584;2023-05-10T11:33:59;17.00;99.90
22974;DHT22;11653;50.848;4.584;2023-05-10T11:36:33;17.30;99.90
22974;DHT22;11653;50.848;4.584;2023-05-10T11:39:00;17.60;99.90
22974;DHT22;11653;50.848;4.584;2023-05-10T11:41:27;17.90;99.90
22974;DHT22;11653;50.848;4.584;2023-05-10T11:43:54;18.00;99.90
22974;DHT22;11653;50.848;4.584;2023-05-10T11:46:22;18.10;99.90
22974;DHT22;11653;50.848;4.584;2023-05-10T11:48:52;18.30;99.90
22974;DHT22;11653;50.848;4.584;2023-05-10T11:51:23;18.20;99.90
22974;DHT22;11653;50.848;4.584;2023-05-10T11:53:52;18.10;99.90
22974;DHT22;11653;50.848;4.584;2023-05-10T11:56:18;18.20;99.90
22974;DHT22;11653;50.848;4.584;2023-05-10T11:58:43;18.40;99.90
22974;DHT22;11653;50.848;4.584;2023-05-10T12:01:10;18.60;99.90
22974;DHT22;11653;50.848;4.584;2023-05-10T12:03:37;18.60;99.90
22974;DHT22;11653;50.848;4.584;2023-05-10T12:06:04;18.60;99.90
22974;DHT22;11653;50.848;4.584;2023-05-10T12:08:30;18.50;99.90
22974;DHT22;11653;50.848;4.584;2023-05-10T12:11:09;18.60;99.90
22974;DHT22;11653;50.848;4.584;2023-05-10T12:13:40;18.70;99.90
22974;DHT22;11653;50.848;4.584;2023-05-10T12:16:14;18.90;99.90
22974;DHT22;11653;50.848;4.584;2023-05-10T12:18:41;19.30;99.90
22974;DHT22;11653;50.848;4.584;2023-05-10T12:21:10;19.50;99.90
22974;DHT22;11653;50.848;4.584;2023-05-10T12:23:36;19.60;99.90
22974;DHT22;11653;50.848;4.584;2023-05-10T12:26:03;19.60;99.90
22974;DHT22;11653;50.848;4.584;2023-05-10T12:28:32;19.80;99.90
22974;DHT22;11653;50.848;4.584;2023-05-10T12:31:02;19.70;99.90
22974;DHT22;11653;50.848;4.584;2023-05-10T12:33:42;19.50;99.90
22974;DHT22;11653;50.848;4.584;2023-05-10T12:36:13;19.50;99.90
22974;DHT22;11653;50.848;4.584;2023-05-10T12:38:45;19.40;99.90
22974;DHT22;11653;50.848;4.584;2023-05-10T12:41:15;19.60;99.90
22974;DHT22;11653;50.848;4.584;2023-05-10T12:43:42;19.80;99.90
22974;DHT22;11653;50.848;4.584;2023-05-10T12:46:09;20.10;99.90
22974;DHT22;11653;50.848;4.584;2023-05-10T12:48:36;20.40;99.90
22974;DHT22;11653;50.848;4.584;2023-05-10T12:51:03;20.10;99.90
22974;DHT22;11653;50.848;4.584;2023-05-10T12:53:29;20.30;99.90
22974;DHT22;11653;50.848;4.584;2023-05-10T12:55:55;20.30;99.90
22974;DHT22;11653;50.848;4.584;2023-05-10T12:58:21;20.60;99.90
22974;DHT22;11653;50.848;4.584;2023-05-10T13:00:47;20.70;99.90
22974;DHT22;11653;50.848;4.584;2023-05-10T13:03:13;20.50;99.90
22974;DHT22;11653;50.848;4.584;2023-05-10T13:05:38;20.20;99.90
22974;DHT22;11653;50.848;4.584;2023-05-10T13:08:04;20.10;99.90
22974;DHT22;11653;50.848;4.584;2023-05-10T13:10:31;20.20;99.90
22974;DHT22;11653;50.848;4.584;2023-05-10T13:12:57;20.20;99.90
22974;DHT22;11653;50.848;4.584;2023-05-10T13:15:24;20.10;99.90
22974;DHT22;11653;50.848;4.584;2023-05-10T13:17:50;20.10;99.90
22974;DHT22;11653;50.848;4.584;2023-05-10T13:20:15;20.00;99.90
22974;DHT22;11653;50.848;4.584;2023-05-10T13:22:44;19.90;99.90
22974;DHT22;11653;50.848;4.584;2023-05-10T13:25:10;19.70;99.90
22974;DHT22;11653;50.848;4.584;2023-05-10T13:27:39;19.80;99.90
22974;DHT22;11653;50.848;4.584;2023-05-10T13:30:07;19.70;99.90
22974;DHT22;11653;50.848;4.584;2023-05-10T13:32:33;19.70;99.90
22974;DHT22;11653;50.848;4.584;2023-05-10T13:35:02;19.70;99.90
22974;DHT22;11653;50.848;4.584;2023-05-10T13:37:31;19.80;99.90
22974;DHT22;11653;50.848;4.584;2023-05-10T13:40:00;19.90;99.90
22974;DHT22;11653;50.848;4.584;2023-05-10T13:42:26;19.90;99.90
22974;DHT22;11653;50.848;4.584;2023-05-10T13:44:52;19.90;99.90
22974;DHT22;11653;50.848;4.584;2023-05-10T13:47:18;19.80;99.90
22974;DHT22;11653;50.848;4.584;2023-05-10T13:49:44;20.00;99.90
22974;DHT22;11653;50.848;4.584;2023-05-10T13:52:09;20.30;99.90
22974;DHT22;11653;50.848;4.584;2023-05-10T13:54:38;20.40;99.90
22974;DHT22;11653;50.848;4.584;2023-05-10T13:57:04;20.60;99.90
22974;DHT22;11653;50.848;4.584;2023-05-10T13:59:30;20.80;99.90
22974;DHT22;11653;50.848;4.584;2023-05-10T14:01:59;20.80;99.90
22974;DHT22;11653;50.848;4.584;2023-05-10T14:04:25;20.90;99.90
22974;DHT22;11653;50.848;4.584;2023-05-10T14:06:51;20.90;99.90
22974;DHT22;11653;50.848;4.584;2023-05-10T14:09:18;20.90;99.90
22974;DHT22;11653;50.848;4.584;2023-05-10T14:11:44;20.80;99.90
22974;DHT22;11653;50.848;4.584;2023-05-10T14:14:10;20.70;99.90
22974;DHT22;11653;50.848;4.584;2023-05-10T14:16:35;20.60;99.90
22974;DHT22;11653;50.848;4.584;2023-05-10T14:19:01;20.60;99.90
22974;DHT22;11653;50.848;4.584;2023-05-10T14:21:28;20.60;99.90
22974;DHT22;11653;50.848;4.584;2023-05-10T14:23:56;20.80;99.90
22974;DHT22;11653;50.848;4.584;2023-05-10T14:26:22;20.80;99.90
22974;DHT22;11653;50.848;4.584;2023-05-10T14:28:48;20.80;99.90
22974;DHT22;11653;50.848;4.584;2023-05-10T14:31:13;20.80;99.90
22974;DHT22;11653;50.848;4.584;2023-05-10T14:33:40;20.70;99.90
22974;DHT22;11653;50.848;4.584;2023-05-10T14:36:06;20.50;99.90
22974;DHT22;11653;50.848;4.584;2023-05-10T14:38:32;20.50;99.90
22974;DHT22;11653;50.848;4.584;2023-05-10T14:40:58;20.50;99.90
22974;DHT22;11653;50.848;4.584;2023-05-10T14:43:24;20.40;99.90
22974;DHT22;11653;50.848;4.584;2023-05-10T14:45:49;20.10;99.90
22974;DHT22;11653;50.848;4.584;2023-05-10T14:48:15;20.00;99.90
22974;DHT22;11653;50.848;4.584;2023-05-10T14:50:43;19.80;99.90
22974;DHT22;11653;50.848;4.584;2023-05-10T14:53:09;19.70;99.90
22974;DHT22;11653;50.848;4.584;2023-05-10T14:55:35;19.60;99.90
22974;DHT22;11653;50.848;4.584;2023-05-10T14:58:02;19.30;99.90
22974;DHT22;11653;50.848;4.584;2023-05-10T15:00:28;19.30;99.90
22974;DHT22;11653;50.848;4.584;2023-05-10T15:02:54;19.30;99.90
22974;DHT22;11653;50.848;4.584;2023-05-10T15:05:21;19.20;99.90
22974;DHT22;11653;50.848;4.584;2023-05-10T15:07:47;19.10;99.90
22974;DHT22;11653;50.848;4.584;2023-05-10T15:10:12;19.00;99.90
22974;DHT22;11653;50.848;4.584;2023-05-10T15:12:39;18.80;99.90
22974;DHT22;11653;50.848;4.584;2023-05-10T15:15:05;18.50;99.90
22974;DHT22;11653;50.848;4.584;2023-05-10T15:17:31;18.40;99.90
22974;DHT22;11653;50.848;4.584;2023-05-10T15:19:57;18.20;99.90
22974;DHT22;11653;50.848;4.584;2023-05-10T15:22:23;18.20;99.90
22974;DHT22;11653;50.848;4.584;2023-05-10T15:24:49;18.10;99.90
22974;DHT22;11653;50.848;4.584;2023-05-10T15:27:15;17.80;99.90
22974;DHT22;11653;50.848;4.584;2023-05-10T15:29:41;17.50;99.90
22974;DHT22;11653;50.848;4.584;2023-05-10T15:32:07;17.10;99.90
22974;DHT22;11653;50.848;4.584;2023-05-10T15:34:35;16.80;99.90
22974;DHT22;11653;50.848;4.584;2023-05-10T15:37:01;16.40;99.90
22974;DHT22;11653;50.848;4.584;2023-05-10T15:39:27;16.10;99.90
22974;DHT22;11653;50.848;4.584;2023-05-10T15:41:52;15.80;99.90
22974;DHT22;11653;50.848;4.584;2023-05-10T15:44:18;15.50;99.90
22974;DHT22;11653;50.848;4.584;2023-05-10T15:46:44;15.40;99.90
22974;DHT22;11653;50.848;4.584;2023-05-10T15:49:10;15.40;99.90
22974;DHT22;11653;50.848;4.584;2023-05-10T15:51:36;15.30;99.90
22974;DHT22;11653;50.848;4.584;2023-05-10T15:54:01;15.20;99.90
22974;DHT22;11653;50.848;4.584;2023-05-10T15:56:28;15.10;99.90
22974;DHT22;11653;50.848;4.584;2023-05-10T15:58:54;15.10;99.90
22974;DHT22;11653;50.848;4.584;2023-05-10T16:01:19;15.10;99.90